createdAt,value
2018-02-03T00:00:20.291Z,15.53
2018-02-03T00:02:49.428Z,18.97
2018-02-03T00:05:17.808Z,21.37
2018-02-03T00:07:46.210Z,16.87
2018-02-03T00:10:14.606Z,12.37
2018-02-03T00:12:42.964Z,15.00
2018-02-03T00:15:11.333Z,13.47
2018-02-03T00:17:39.724Z,12.90
2018-02-03T00:20:08.114Z,22.40
2018-02-03T00:22:36.502Z,15.23
2018-02-03T00:25:05.658Z,15.97
2018-02-03T00:27:34.024Z,14.47
2018-02-03T00:30:02.396Z,14.33
2018-02-03T00:32:30.800Z,14.63
2018-02-03T00:34:59.993Z,9.67
2018-02-03T00:37:28.376Z,15.20
2018-02-03T00:39:56.739Z,10.60
2018-02-03T00:42:25.129Z,11.90
2018-02-03T00:44:56.559Z,11.80
2018-02-03T00:47:24.952Z,15.03
2018-02-03T00:49:53.320Z,10.07
2018-02-03T00:52:21.690Z,11.10
2018-02-03T00:54:50.099Z,16.93
2018-02-03T00:57:18.468Z,15.73
2018-02-03T00:59:46.863Z,13.77
2018-02-03T01:02:15.245Z,11.90
2018-02-03T01:04:43.626Z,11.20
2018-02-03T01:07:12.019Z,11.10
2018-02-03T01:09:41.161Z,13.37
2018-02-03T01:12:09.545Z,17.00
2018-02-03T01:14:37.923Z,15.73
2018-02-03T01:17:06.283Z,14.17
2018-02-03T01:19:34.679Z,16.13
2018-02-03T01:22:03.064Z,21.73
2018-02-03T01:24:31.436Z,16.07
2018-02-03T01:26:59.639Z,14.13
2018-02-03T01:29:28.015Z,16.27
2018-02-03T01:31:56.427Z,16.00
2018-02-03T01:34:25.571Z,13.90
2018-02-03T01:36:53.941Z,16.63
2018-02-03T01:39:22.380Z,14.70
2018-02-03T01:41:50.572Z,13.60
2018-02-03T01:44:18.984Z,13.50
2018-02-03T01:46:46.685Z,14.80
2018-02-03T01:49:15.922Z,15.00
2018-02-03T01:51:44.310Z,18.90
2018-02-03T01:54:12.672Z,11.37
2018-02-03T01:56:41.303Z,10.70
2018-02-03T01:59:09.701Z,11.30
2018-02-03T02:01:38.832Z,10.20
2018-02-03T02:04:07.203Z,11.40
2018-02-03T02:06:36.347Z,18.97
2018-02-03T02:09:04.152Z,9.37
2018-02-03T02:11:33.281Z,12.57
2018-02-03T02:14:01.643Z,8.97
2018-02-03T02:16:30.019Z,14.07
2018-02-03T02:18:58.380Z,21.67
2018-02-03T02:21:27.531Z,16.73
2018-02-03T02:23:55.909Z,18.87
2018-02-03T02:26:24.317Z,18.63
2018-02-03T02:28:53.504Z,20.77
2018-02-03T02:31:21.872Z,20.37
2018-02-03T02:33:50.252Z,16.70
2018-02-03T02:36:18.622Z,18.87
2018-02-03T02:38:46.993Z,18.93
2018-02-03T02:41:15.388Z,20.67
2018-02-03T02:43:43.765Z,18.43
2018-02-03T02:46:12.499Z,16.80
2018-02-03T02:48:40.903Z,20.27
2018-02-03T02:51:09.276Z,17.50
2018-02-03T02:53:37.643Z,16.30
2018-02-03T02:56:06.014Z,15.83
2018-02-03T02:58:34.652Z,12.63
2018-02-03T03:01:03.023Z,15.83
2018-02-03T03:03:31.404Z,14.73
2018-02-03T03:05:59.971Z,18.13
2018-02-03T03:08:28.014Z,21.03
2018-02-03T03:10:56.684Z,19.87
2018-02-03T03:13:25.812Z,17.47
2018-02-03T03:15:54.183Z,12.43
2018-02-03T03:18:22.572Z,14.30
2018-02-03T03:20:50.936Z,19.37
2018-02-03T03:23:19.587Z,15.83
2018-02-03T03:25:48.722Z,11.43
2018-02-03T03:28:17.097Z,21.57
2018-02-03T03:30:45.475Z,13.13
2018-02-03T03:33:13.854Z,26.60
2018-02-03T03:35:42.334Z,20.27
2018-02-03T03:38:10.704Z,15.20
2018-02-03T03:40:39.068Z,18.10
2018-02-03T03:43:07.455Z,16.13
2018-02-03T03:45:35.816Z,15.90
2018-02-03T03:48:04.964Z,14.53
2018-02-03T03:50:32.675Z,16.17
2018-02-03T03:53:01.052Z,12.60
2018-02-03T03:55:30.008Z,11.80
2018-02-03T03:57:58.376Z,16.53
2018-02-03T04:00:26.928Z,14.23
2018-02-03T04:02:55.112Z,14.53
2018-02-03T04:05:23.487Z,16.73
2018-02-03T04:07:51.685Z,18.03
2018-02-03T04:10:20.060Z,14.90
2018-02-03T04:12:48.443Z,16.80
2018-02-03T04:15:16.627Z,16.17
2018-02-03T04:17:45.000Z,12.90
2018-02-03T04:20:13.380Z,14.63
2018-02-03T04:22:41.760Z,13.43
2018-02-03T04:25:10.144Z,13.17
2018-02-03T04:27:38.556Z,15.77
2018-02-03T04:30:06.850Z,14.10
2018-02-03T04:32:35.227Z,14.90
2018-02-03T04:35:03.409Z,12.97
2018-02-03T04:37:31.787Z,12.53
2018-02-03T04:40:00.168Z,14.47
2018-02-03T04:42:28.347Z,20.30
2018-02-03T04:44:56.729Z,14.97
2018-02-03T04:47:25.095Z,14.30
2018-02-03T04:49:53.296Z,19.30
2018-02-03T04:52:21.684Z,15.17
2018-02-03T04:54:50.056Z,14.83
2018-02-03T04:57:18.431Z,17.90
2018-02-03T04:59:46.803Z,21.73
2018-02-03T05:02:15.196Z,20.43
2018-02-03T05:04:43.555Z,17.70
2018-02-03T05:07:11.928Z,23.60
2018-02-03T05:09:40.313Z,19.40
2018-02-03T05:12:08.676Z,15.53
2018-02-03T05:14:37.429Z,16.07
2018-02-03T05:17:05.605Z,16.50
2018-02-03T05:19:33.981Z,16.80
2018-02-03T05:22:02.360Z,17.03
2018-02-03T05:24:30.728Z,23.20
2018-02-03T05:26:59.911Z,18.43
2018-02-03T05:29:29.148Z,17.03
2018-02-03T05:31:57.534Z,18.43
2018-02-03T05:34:25.753Z,18.37
2018-02-03T05:36:54.118Z,24.23
2018-02-03T05:39:22.327Z,23.97
2018-02-03T05:41:51.503Z,25.73
2018-02-03T05:44:24.522Z,26.27
2018-02-03T05:46:52.700Z,22.07
2018-02-03T05:49:20.868Z,27.80
2018-02-03T05:51:49.253Z,22.97
2018-02-03T05:54:17.628Z,23.80
2018-02-03T05:56:46.065Z,24.93
2018-02-03T05:59:14.436Z,21.97
2018-02-03T06:01:42.812Z,24.73
2018-02-03T06:04:11.231Z,28.57
2018-02-03T06:06:40.368Z,28.30
2018-02-03T06:09:09.040Z,27.13
2018-02-03T06:11:37.404Z,27.70
2018-02-03T06:14:05.766Z,22.53
2018-02-03T06:16:34.932Z,27.77
2018-02-03T06:19:03.307Z,26.03
2018-02-03T06:21:31.692Z,25.50
2018-02-03T06:24:00.064Z,33.50
2018-02-03T06:26:28.441Z,35.10
2018-02-03T06:28:56.820Z,26.90
2018-02-03T06:31:25.208Z,33.70
2018-02-03T06:33:53.930Z,26.07
2018-02-03T06:36:22.316Z,32.37
2018-02-03T06:38:50.511Z,28.73
2018-02-03T06:41:18.916Z,30.13
2018-02-03T06:43:47.301Z,30.93
2018-02-03T06:46:15.683Z,30.73
2018-02-03T06:48:44.052Z,27.80
2018-02-03T06:51:12.425Z,28.93
2018-02-03T06:53:40.833Z,31.47
2018-02-03T06:56:09.212Z,24.10
2018-02-03T06:58:38.368Z,28.60
2018-02-03T07:01:06.755Z,29.90
2018-02-03T07:03:35.136Z,35.00
2018-02-03T07:06:03.532Z,26.50
2018-02-03T07:08:31.901Z,24.30
2018-02-03T07:11:00.307Z,44.10
2018-02-03T07:13:29.470Z,34.53
2018-02-03T07:15:57.508Z,33.83
2018-02-03T07:18:25.713Z,34.07
2018-02-03T07:20:53.901Z,34.30
2018-02-03T07:23:22.301Z,30.73
2018-02-03T07:25:51.252Z,27.40
2018-02-03T07:28:19.637Z,26.13
2018-02-03T07:30:47.830Z,20.43
2018-02-03T07:33:16.958Z,29.60
2018-02-03T07:35:45.591Z,27.97
2018-02-03T07:38:13.968Z,28.60
2018-02-03T07:40:42.340Z,22.37
2018-02-03T07:43:10.724Z,30.30
2018-02-03T07:45:38.427Z,13.80
2018-02-03T07:48:06.805Z,24.57
2018-02-03T07:50:35.258Z,17.77
2018-02-03T07:53:03.625Z,23.53
2018-02-03T07:55:32.027Z,23.57
2018-02-03T07:58:01.165Z,23.33
2018-02-03T08:00:29.540Z,23.40
2018-02-03T08:02:57.919Z,20.23
2018-02-03T08:05:26.299Z,25.23
2018-02-03T08:07:54.715Z,29.10
2018-02-03T08:10:23.115Z,27.83
2018-02-03T08:12:52.252Z,17.67
2018-02-03T08:15:19.981Z,23.87
2018-02-03T08:17:49.164Z,30.50
2018-02-03T08:20:18.489Z,25.57
2018-02-03T08:22:46.195Z,18.43
2018-02-03T08:25:14.604Z,31.93
2018-02-03T08:27:43.003Z,22.53
2018-02-03T08:30:11.378Z,19.53
2018-02-03T08:32:39.451Z,19.53
2018-02-03T08:35:08.622Z,16.73
2018-02-03T08:37:36.843Z,24.83
2018-02-03T08:40:05.385Z,23.87
2018-02-03T08:42:33.761Z,20.60
2018-02-03T08:45:02.153Z,20.83
2018-02-03T08:47:31.296Z,18.37
2018-02-03T08:49:59.681Z,22.60
2018-02-03T08:52:28.078Z,31.53
2018-02-03T08:54:56.453Z,25.43
2018-02-03T08:57:24.931Z,23.07
2018-02-03T08:59:55.808Z,23.07
2018-02-03T09:02:24.989Z,26.37
2018-02-03T09:04:54.143Z,21.20
2018-02-03T09:07:22.626Z,19.83
2018-02-03T09:09:51.015Z,17.50
2018-02-03T09:12:19.385Z,17.70
2018-02-03T09:14:52.165Z,20.67
2018-02-03T09:17:20.598Z,21.37
2018-02-03T09:19:49.731Z,28.00
2018-02-03T09:22:18.138Z,18.67
2018-02-03T09:24:47.271Z,20.17
2018-02-03T09:27:15.328Z,20.73
2018-02-03T09:29:44.470Z,21.47
2018-02-03T09:32:12.886Z,27.83
2018-02-03T09:34:41.268Z,17.00
2018-02-03T09:37:09.681Z,20.30
2018-02-03T09:39:38.077Z,18.57
2018-02-03T09:42:06.511Z,18.83
2018-02-03T09:44:35.648Z,18.50
2018-02-03T09:47:03.880Z,19.50
2018-02-03T09:49:33.016Z,20.83
2018-02-03T09:52:01.704Z,12.10
2018-02-03T09:54:29.929Z,14.17
2018-02-03T09:56:58.358Z,16.77
2018-02-03T09:59:26.896Z,15.97
2018-02-03T10:01:56.050Z,13.17
2018-02-03T10:04:24.443Z,18.30
2018-02-03T10:06:52.820Z,16.10
2018-02-03T10:09:21.225Z,19.90
2018-02-03T10:11:50.446Z,12.30
2018-02-03T10:14:19.589Z,12.63
2018-02-03T10:16:48.549Z,4.13
2018-02-03T10:19:16.268Z,13.27
2018-02-03T10:21:44.705Z,12.63
2018-02-03T10:24:13.101Z,9.00
2018-02-03T10:26:41.147Z,8.80
2018-02-03T10:29:09.533Z,8.50
2018-02-03T10:31:38.025Z,10.07
2018-02-03T10:34:06.384Z,5.00
2018-02-03T10:36:34.780Z,8.03
2018-02-03T10:39:02.627Z,15.80
2018-02-03T10:41:31.013Z,4.10
2018-02-03T10:43:59.372Z,12.60
2018-02-03T10:46:27.740Z,12.30
2018-02-03T10:48:56.124Z,10.23
2018-02-03T10:51:24.488Z,5.40
2018-02-03T10:53:53.633Z,6.90
2018-02-03T10:56:21.692Z,10.27
2018-02-03T10:58:50.058Z,11.70
2018-02-03T11:01:18.443Z,12.07
2018-02-03T11:03:46.841Z,14.20
2018-02-03T11:06:15.243Z,10.60
2018-02-03T11:08:43.636Z,10.00
2018-02-03T11:11:12.770Z,10.23
2018-02-03T11:13:41.218Z,14.80
2018-02-03T11:16:09.638Z,12.80
2018-02-03T11:18:38.300Z,14.80
2018-02-03T11:21:06.668Z,10.30
2018-02-03T11:23:35.801Z,14.97
2018-02-03T11:26:04.195Z,14.70
2018-02-03T11:28:32.570Z,12.87
2018-02-03T11:31:00.968Z,16.63
2018-02-03T11:33:29.342Z,10.67
2018-02-03T11:35:57.726Z,15.83
2018-02-03T11:38:26.117Z,7.20
2018-02-03T11:40:55.336Z,14.40
2018-02-03T11:43:23.721Z,10.80
2018-02-03T11:45:52.087Z,15.53
2018-02-03T11:48:21.236Z,11.50
2018-02-03T11:50:49.636Z,10.40
2018-02-03T11:53:18.044Z,17.23
2018-02-03T11:55:46.432Z,18.47
2018-02-03T11:58:14.833Z,13.97
2018-02-03T12:00:42.909Z,17.70
2018-02-03T12:03:11.288Z,18.23
2018-02-03T12:05:39.648Z,18.93
2018-02-03T12:08:08.080Z,20.57
2018-02-03T12:10:36.441Z,16.27
2018-02-03T12:13:04.815Z,11.53
2018-02-03T12:15:33.189Z,13.87
2018-02-03T12:18:01.617Z,12.23
2018-02-03T12:20:30.414Z,12.87
2018-02-03T12:22:58.133Z,10.87
2018-02-03T12:25:26.502Z,16.37
2018-02-03T12:27:54.906Z,12.87
2018-02-03T12:30:23.275Z,12.70
2018-02-03T12:32:51.676Z,10.17
2018-02-03T12:35:20.816Z,12.27
2018-02-03T12:37:49.177Z,14.40
2018-02-03T12:40:17.582Z,14.43
2018-02-03T12:42:45.961Z,13.50
2018-02-03T12:45:14.401Z,15.03
2018-02-03T12:47:42.830Z,14.10
2018-02-03T12:50:12.829Z,14.77
2018-02-03T12:52:41.052Z,10.03
2018-02-03T12:55:10.184Z,13.40
2018-02-03T12:57:38.818Z,10.77
2018-02-03T13:00:07.358Z,11.23
2018-02-03T13:02:35.747Z,11.20
2018-02-03T13:05:04.142Z,12.63
2018-02-03T13:07:32.528Z,20.57
2018-02-03T13:10:00.919Z,9.10
2018-02-03T13:12:29.316Z,10.70
2018-02-03T13:14:58.461Z,9.40
2018-02-03T13:17:26.851Z,6.77
2018-02-03T13:19:55.215Z,7.43
2018-02-03T13:22:23.848Z,8.30
2018-02-03T13:24:52.809Z,11.40
2018-02-03T13:27:21.191Z,10.97
2018-02-03T13:29:49.576Z,13.10
2018-02-03T13:32:18.274Z,14.10
2018-02-03T13:34:47.468Z,7.13
2018-02-03T13:37:16.617Z,6.17
2018-02-03T13:39:44.995Z,17.10
2018-02-03T13:42:13.388Z,12.80
2018-02-03T13:44:41.817Z,11.40
2018-02-03T13:47:10.221Z,9.63
2018-02-03T13:49:38.601Z,14.30
2018-02-03T13:52:06.993Z,12.77
2018-02-03T13:54:35.384Z,9.90
2018-02-03T13:57:03.774Z,13.83
2018-02-03T13:59:32.157Z,8.77
2018-02-03T14:02:00.628Z,12.80
2018-02-03T14:04:29.001Z,11.63
2018-02-03T14:06:57.377Z,12.23
2018-02-03T14:09:25.766Z,14.10
2018-02-03T14:11:54.441Z,8.73
2018-02-03T14:14:22.807Z,10.70
2018-02-03T14:16:51.184Z,10.30
2018-02-03T14:19:19.579Z,15.60
2018-02-03T14:21:47.958Z,5.80
2018-02-03T14:24:21.737Z,10.63
2018-02-03T14:26:49.932Z,11.40
2018-02-03T14:29:18.308Z,13.47
2018-02-03T14:31:46.710Z,11.47
2018-02-03T14:34:15.865Z,13.03
2018-02-03T14:36:43.924Z,10.07
2018-02-03T14:39:12.352Z,15.13
2018-02-03T14:41:40.724Z,11.07
2018-02-03T14:44:09.101Z,15.00
2018-02-03T14:46:36.808Z,9.87
2018-02-03T14:49:05.185Z,11.97
2018-02-03T14:51:33.551Z,12.70
2018-02-03T14:54:02.681Z,12.30
2018-02-03T14:56:31.060Z,10.20
2018-02-03T14:58:59.528Z,16.13
2018-02-03T15:01:27.916Z,7.87
2018-02-03T15:03:56.288Z,5.53
2018-02-03T15:06:24.660Z,6.70
2018-02-03T15:08:53.054Z,10.80
2018-02-03T15:11:21.441Z,12.37
2018-02-03T15:13:50.129Z,5.07
2018-02-03T15:16:17.843Z,7.00
2018-02-03T15:18:46.251Z,7.53
2018-02-03T15:21:14.644Z,9.40
2018-02-03T15:23:43.037Z,9.50
2018-02-03T15:26:11.460Z,9.87
2018-02-03T15:28:40.626Z,8.97
2018-02-03T15:31:09.169Z,7.83
2018-02-03T15:33:37.552Z,10.50
2018-02-03T15:36:05.938Z,10.47
2018-02-03T15:38:34.348Z,6.77
2018-02-03T15:41:02.540Z,46.53
2018-02-03T15:43:31.717Z,36.33
2018-02-03T15:46:00.120Z,7.83
2018-02-03T15:48:29.059Z,9.40
2018-02-03T15:50:57.957Z,6.30
2018-02-03T15:53:26.334Z,6.90
2018-02-03T15:55:54.695Z,7.23
2018-02-03T15:58:23.071Z,7.00
2018-02-03T16:00:51.468Z,8.00
2018-02-03T16:03:19.878Z,8.30
2018-02-03T16:05:49.016Z,6.90
2018-02-03T16:08:17.476Z,13.40
2018-02-03T16:10:45.852Z,13.07
2018-02-03T16:13:14.340Z,24.13
2018-02-03T16:15:42.728Z,18.23
2018-02-03T16:18:11.228Z,12.23
2018-02-03T16:20:39.604Z,7.90
2018-02-03T16:23:08.041Z,9.03
2018-02-03T16:25:37.167Z,8.20
2018-02-03T16:28:05.367Z,9.30
2018-02-03T16:30:34.504Z,10.47
2018-02-03T16:33:03.322Z,8.83
2018-02-03T16:35:36.490Z,9.63
2018-02-03T16:38:05.002Z,7.20
2018-02-03T16:40:33.475Z,8.93
2018-02-03T16:43:01.832Z,8.23
2018-02-03T16:45:31.587Z,8.53
2018-02-03T16:47:59.984Z,9.13
2018-02-03T16:50:28.350Z,10.30
2018-02-03T16:52:56.748Z,11.63
2018-02-03T16:55:25.181Z,7.07
2018-02-03T16:57:54.344Z,13.23
2018-02-03T17:00:23.487Z,7.57
2018-02-03T17:02:51.894Z,10.70
2018-02-03T17:05:19.621Z,7.30
2018-02-03T17:07:47.997Z,10.77
2018-02-03T17:10:16.378Z,9.80
2018-02-03T17:12:44.766Z,8.03
2018-02-03T17:15:13.194Z,7.17
2018-02-03T17:17:42.324Z,10.27
2018-02-03T17:20:10.724Z,8.50
2018-02-03T17:22:39.092Z,14.13
2018-02-03T17:25:07.497Z,11.33
2018-02-03T17:27:35.876Z,10.63
2018-02-03T17:30:03.727Z,10.27
2018-02-03T17:32:32.109Z,9.77
2018-02-03T17:35:00.497Z,9.83
2018-02-03T17:37:34.309Z,12.33
2018-02-03T17:40:02.482Z,12.60
2018-02-03T17:42:30.626Z,11.17
2018-02-03T17:45:04.450Z,14.13
2018-02-03T17:47:32.869Z,9.30
2018-02-03T17:50:02.008Z,14.60
2018-02-03T17:52:30.384Z,13.63
2018-02-03T17:54:58.644Z,12.60
2018-02-03T17:57:32.587Z,12.27
2018-02-03T18:00:00.610Z,19.47
2018-02-03T18:02:28.796Z,15.17
2018-02-03T18:04:58.084Z,19.20
2018-02-03T18:07:26.477Z,17.00
2018-02-03T18:09:54.845Z,16.67
2018-02-03T18:12:23.263Z,15.03
2018-02-03T18:14:51.663Z,17.40
2018-02-03T18:17:20.911Z,14.90
2018-02-03T18:19:49.335Z,17.50
2018-02-03T18:22:22.134Z,19.90
2018-02-03T18:24:51.294Z,13.93
2018-02-03T18:27:19.661Z,13.00
2018-02-03T18:29:48.027Z,19.17
2018-02-03T18:32:16.408Z,11.20
2018-02-03T18:34:44.785Z,13.90
2018-02-03T18:37:13.472Z,16.00
2018-02-03T18:39:41.503Z,12.97
2018-02-03T18:42:10.641Z,15.30
2018-02-03T18:44:39.016Z,14.23
2018-02-03T18:47:07.395Z,15.33
2018-02-03T18:49:35.804Z,12.87
2018-02-03T18:52:04.179Z,14.07
2018-02-03T18:54:32.569Z,17.20
2018-02-03T18:59:37.292Z,17.50
2018-02-03T19:02:05.722Z,15.00
2018-02-03T19:04:34.095Z,16.87
2018-02-03T19:07:03.242Z,16.73
2018-02-03T19:09:31.634Z,18.97
2018-02-03T19:12:00.012Z,16.90
2018-02-03T19:14:27.752Z,18.37
2018-02-03T19:16:56.132Z,19.33
2018-02-03T19:19:24.508Z,19.00
2018-02-03T19:21:52.903Z,16.13
2018-02-03T19:24:21.270Z,14.37
2018-02-03T19:26:49.681Z,13.20
2018-02-03T19:29:18.064Z,13.10
2018-02-03T19:31:46.438Z,17.10
2018-02-03T19:34:14.823Z,18.00
2018-02-03T19:36:43.964Z,14.40
2018-02-03T19:39:12.660Z,15.27
2018-02-03T19:41:41.032Z,16.10
2018-02-03T19:44:09.408Z,14.07
2018-02-03T19:46:37.879Z,18.37
2018-02-03T19:49:06.268Z,17.67
2018-02-03T19:51:34.946Z,16.13
2018-02-03T19:54:03.322Z,16.40
2018-02-03T19:56:31.693Z,14.40
2018-02-03T19:59:00.088Z,18.00
2018-02-03T20:01:28.457Z,16.27
2018-02-03T20:03:56.869Z,15.17
2018-02-03T20:06:25.249Z,16.40
2018-02-03T20:08:53.618Z,19.20
2018-02-03T20:11:22.008Z,18.10
2018-02-03T20:13:50.545Z,15.23
2018-02-03T20:16:18.986Z,17.90
2018-02-03T20:18:48.139Z,21.37
2018-02-03T20:21:16.230Z,21.13
2018-02-03T20:23:44.637Z,17.93
2018-02-03T20:26:13.841Z,14.50
2018-02-03T20:28:42.239Z,22.00
2018-02-03T20:31:10.893Z,22.50
2018-02-03T20:33:40.706Z,12.97
2018-02-03T20:36:09.161Z,18.60
2018-02-03T20:38:46.992Z,23.93
2018-02-03T20:41:15.459Z,20.37
2018-02-03T20:43:43.693Z,14.10
2018-02-03T20:46:11.408Z,21.00
2018-02-03T20:48:40.655Z,15.07
2018-02-03T20:51:09.024Z,18.20
2018-02-03T20:53:37.225Z,14.63
2018-02-03T20:56:14.210Z,13.53
2018-02-03T20:58:42.598Z,13.73
2018-02-03T21:01:14.972Z,11.30
2018-02-03T21:03:43.403Z,13.90
2018-02-03T21:06:11.777Z,14.90
2018-02-03T21:08:40.150Z,11.47
2018-02-03T21:11:08.540Z,10.23
2018-02-03T21:13:37.131Z,13.37
2018-02-03T21:16:05.179Z,14.87
2018-02-03T21:18:33.556Z,10.40
2018-02-03T21:21:02.054Z,12.20
2018-02-03T21:23:30.437Z,14.53
2018-02-03T21:25:58.823Z,17.77
2018-02-03T21:28:27.210Z,14.90
2018-02-03T21:30:55.611Z,20.07
2018-02-03T21:33:23.996Z,17.67
2018-02-03T21:35:52.203Z,15.53
2018-02-03T21:38:34.423Z,18.73
2018-02-03T21:41:02.824Z,17.33
2018-02-03T21:43:31.260Z,11.83
2018-02-03T21:45:59.695Z,18.80
2018-02-03T21:48:28.085Z,14.97
2018-02-03T21:50:56.481Z,14.10
2018-02-03T21:53:25.998Z,11.20
2018-02-03T21:55:54.383Z,11.90
2018-02-03T21:58:22.993Z,16.00
2018-02-03T22:00:51.382Z,12.40
2018-02-03T22:03:19.824Z,16.27
2018-02-03T22:05:47.875Z,16.00
2018-02-03T22:08:17.472Z,12.57
2018-02-03T22:10:45.844Z,16.83
2018-02-03T22:13:14.341Z,15.60
2018-02-03T22:15:42.860Z,13.40
2018-02-03T22:18:11.240Z,13.97
2018-02-03T22:20:39.463Z,17.27
2018-02-03T22:23:07.860Z,15.27
2018-02-03T22:25:36.987Z,11.80
2018-02-03T22:28:05.367Z,14.20
2018-02-03T22:30:33.758Z,15.43
2018-02-03T22:33:02.125Z,14.70
2018-02-03T22:35:30.494Z,12.60
2018-02-03T22:37:58.914Z,11.57
2018-02-03T22:40:27.300Z,12.83
2018-02-03T22:42:55.669Z,23.87
2018-02-03T22:45:24.063Z,11.23
2018-02-03T22:47:52.437Z,15.83
2018-02-03T22:50:20.941Z,10.80
2018-02-03T22:52:49.476Z,11.87
2018-02-03T22:55:17.848Z,15.03
2018-02-03T22:57:46.214Z,10.93
2018-02-03T23:00:17.313Z,10.17
2018-02-03T23:02:51.814Z,15.20
2018-02-03T23:05:20.213Z,14.93
2018-02-03T23:07:48.777Z,15.10
2018-02-03T23:10:17.148Z,16.50
2018-02-03T23:12:45.539Z,17.20
2018-02-03T23:15:13.902Z,16.93
2018-02-03T23:17:42.503Z,14.17
2018-02-03T23:20:10.948Z,17.57
2018-02-03T23:22:39.469Z,9.97
2018-02-03T23:25:08.633Z,15.87
2018-02-03T23:27:37.152Z,17.63
2018-02-03T23:30:06.342Z,15.00
2018-02-03T23:32:34.724Z,18.53
2018-02-03T23:35:03.911Z,12.77
2018-02-03T23:37:32.272Z,16.07
2018-02-03T23:40:00.638Z,12.70
2018-02-03T23:42:29.033Z,14.30
2018-02-03T23:44:58.178Z,14.80
2018-02-03T23:47:26.552Z,13.90
2018-02-03T23:49:54.957Z,12.87
2018-02-03T23:52:23.457Z,11.13
2018-02-03T23:54:51.833Z,13.67
2018-02-03T23:57:20.232Z,15.13
2018-02-03T23:59:48.415Z,19.17
